Time;durP1;ratioP1;P1;durP2;ratioP2;P2;SDS_P1;SDS_P2;PMS_P1;PMS_P2;Temp;Humidity;BMP_temperature;BMP_pressure;BME280_temperature;BME280_humidity;BME280_pressure;Samples;Min_cycle;Max_cycle;Signal;HPM_P1;HPM_P2
2023/04/05 00:01:48;;;;;;;;;;;6.10;44.60;;;4.68;48.35;102116.69;12260844;19;20292;-86
2023/04/05 00:05:53;;;;;;;;;;;6.40;44.80;;;4.51;48.56;102096.16;12259940;19;19923;-86
2023/04/05 00:09:55;;;;;;;;;;;6.40;44.70;;;4.42;48.55;102093.63;12254107;19;20268;-86
2023/04/05 00:14:00;;;;;;;;;;;6.00;44.60;;;4.29;48.42;102076.47;12257611;19;19919;-86
2023/04/05 00:18:02;;;;;;;;;;;5.90;44.60;;;4.37;48.51;102096.22;12257752;19;19930;-86
2023/04/05 00:22:04;;;;;;;;;;;5.90;44.60;;;4.37;48.53;102098.81;12259783;19;19921;-86
2023/04/05 00:26:08;;;;;;;;;;;6.10;44.70;;;4.09;48.46;102055.94;12258345;19;19986;-86
2023/04/05 00:30:11;;;;;;;;;;;5.80;44.60;;;4.32;48.45;102104.88;12255869;19;20354;-86
2023/04/05 00:34:13;;;;;;;;;;;5.80;44.60;;;4.24;48.65;102097.22;12259555;19;19923;-86
2023/04/05 00:38:14;;;;;;;;;;;5.70;44.60;;;4.20;48.49;102101.53;12255900;19;19919;-86
2023/04/05 00:42:16;;;;;;;;;;;6.10;44.80;;;4.24;48.55;102111.84;12257702;19;20119;-86
2023/04/05 00:46:17;;;;;;;;;;;5.70;44.60;;;4.19;48.57;102110.16;12256895;19;19974;-86
2023/04/05 00:50:20;;;;;;;;;;;5.70;45.00;;;4.07;48.73;102088.69;12253862;19;19919;-86
2023/04/05 00:54:23;;;;;;;;;;;5.60;44.70;;;3.91;48.66;102068.09;12255336;19;19911;-86
2023/04/05 00:58:25;;;;;;;;;;;5.60;44.70;;;4.03;48.55;102094.75;12252923;19;19910;-86
2023/04/05 01:02:35;;;;;;;;;;;5.50;44.60;;;4.05;48.56;102103.34;12256074;19;19918;-86
2023/04/05 01:07:04;;;;;;;;;;;5.50;44.60;;;4.01;48.49;102099.06;12253244;19;19915;-86
2023/04/05 01:11:07;;;;;;;;;;;5.50;44.60;;;3.95;48.77;102105.13;12252775;19;20325;-86
2023/04/05 01:15:10;;;;;;;;;;;5.40;44.60;;;3.89;48.73;102097.41;12254579;19;20353;-86
2023/04/05 01:19:12;;;;;;;;;;;5.40;44.60;;;3.65;48.62;102057.06;12252695;19;20238;-86
2023/04/05 01:23:49;;;;;;;;;;;5.40;44.70;;;3.85;48.62;102091.41;12255497;19;20624;-86
2023/04/05 01:27:56;;;;;;;;;;;5.40;44.70;;;3.80;48.89;102085.38;12249441;19;19918;-86
2023/04/05 01:32:05;;;;;;;;;;;5.30;44.70;;;3.73;48.71;102076.81;12254901;19;19919;-86
2023/04/05 01:36:39;;;;;;;;;;;5.30;44.70;;;3.74;48.68;102081.13;12258987;19;19927;-86
2023/04/05 01:40:42;;;;;;;;;;;5.20;44.70;;;3.54;48.80;102050.22;12257970;19;19915;-86
2023/04/05 01:44:44;;;;;;;;;;;5.20;44.70;;;3.64;48.51;102063.09;12257495;19;19914;-87
2023/04/05 01:48:45;;;;;;;;;;;5.40;44.80;;;3.61;48.62;102076.03;12254751;19;19926;-87
2023/04/05 01:52:48;;;;;;;;;;;5.20;44.70;;;3.43;48.54;102049.41;12255009;19;19919;-86
2023/04/05 01:56:51;;;;;;;;;;;5.10;44.70;;;3.43;48.59;102064.91;12245681;19;19919;-86
2023/04/05 02:00:57;;;;;;;;;;;5.00;44.60;;;3.44;48.92;102061.47;12254291;19;19915;-87
2023/04/05 02:04:59;;;;;;;;;;;4.90;44.70;;;3.31;48.94;102049.47;12255734;19;19986;-87
2023/04/05 02:09:00;;;;;;;;;;;4.90;44.70;;;3.36;48.75;102068.38;12253801;19;19932;-87
2023/04/05 02:13:02;;;;;;;;;;;4.90;44.70;;;3.30;48.74;102064.09;12255005;19;19954;-87
2023/04/05 02:17:04;;;;;;;;;;;4.80;44.80;;;2.92;48.61;102007.44;12256086;19;19911;-87
2023/04/05 02:21:09;;;;;;;;;;;4.80;44.80;;;3.22;49.10;102049.50;12256748;19;19922;-87
2023/04/05 02:25:12;;;;;;;;;;;5.10;44.90;;;3.14;48.72;102038.34;12256186;19;19915;-87
2023/04/05 02:29:13;;;;;;;;;;;4.80;44.90;;;3.21;48.84;102050.34;12253103;19;20236;-87
2023/04/05 02:33:16;;;;;;;;;;;4.90;45.00;;;3.24;48.94;102058.06;12256300;19;19911;-87
2023/04/05 02:37:19;;;;;;;;;;;4.80;45.00;;;2.95;49.03;102006.59;12255726;19;19911;-87
2023/04/05 02:41:22;;;;;;;;;;;4.70;45.00;;;3.18;48.81;102037.44;12257334;19;19936;-87
2023/04/05 02:45:24;;;;;;;;;;;4.90;45.10;;;3.19;48.94;102036.59;12257027;19;19915;-87
2023/04/05 02:49:25;;;;;;;;;;;4.70;45.00;;;3.14;48.88;102035.75;12250200;19;20353;-87
2023/04/05 02:53:28;;;;;;;;;;;4.80;45.10;;;3.15;48.89;102033.16;12252513;19;19919;-87
2023/04/05 02:57:35;;;;;;;;;;;4.80;45.10;;;3.17;48.91;102031.44;12251445;19;20368;-87
2023/04/05 03:01:44;;;;;;;;;;;4.80;45.10;;;3.15;48.88;102022.84;12250628;19;19934;-87
2023/04/05 03:06:06;;;;;;;;;;;4.80;45.10;;;2.95;48.88;101993.69;12250471;19;19919;-87
2023/04/05 03:10:12;;;;;;;;;;;4.80;45.10;;;3.23;49.06;102034.00;12247885;19;19910;-87
2023/04/05 03:14:16;;;;;;;;;;;4.80;45.10;;;3.14;49.15;102012.53;12251821;19;19914;-86
2023/04/05 03:18:20;;;;;;;;;;;4.80;45.10;;;3.23;49.04;102022.81;12248539;19;20340;-86
2023/04/05 03:22:24;;;;;;;;;;;4.90;45.20;;;3.23;49.05;102020.22;12250461;19;19922;-87
2023/04/05 03:26:26;;;;;;;;;;;5.20;45.30;;;3.30;49.07;102024.53;12249238;19;19911;-87
2023/04/05 03:30:28;;;;;;;;;;;4.90;45.20;;;3.32;49.10;102020.19;12245847;19;19932;-87
2023/04/05 03:34:37;;;;;;;;;;;4.90;45.30;;;3.07;49.26;101988.47;12248763;19;19939;-87
2023/04/05 03:38:43;;;;;;;;;;;5.00;45.20;;;3.33;49.25;102019.34;12245450;19;20587;-87
2023/04/05 03:42:50;;;;;;;;;;;5.20;45.30;;;3.32;49.27;102012.44;12249120;19;19932;-87
2023/04/05 03:46:52;;;;;;;;;;;5.00;45.20;;;3.36;49.26;102013.31;12248170;19;20276;-87
2023/04/05 03:50:55;;;;;;;;;;;5.00;45.20;;;3.33;49.28;102002.13;12246510;19;19918;-87
2023/04/05 03:54:56;;;;;;;;;;;5.00;45.20;;;3.29;49.30;101991.81;12246787;19;19931;-87
2023/04/05 03:58:59;;;;;;;;;;;5.10;45.30;;;3.39;49.20;102011.56;12248452;19;20330;-87
2023/04/05 04:03:03;;;;;;;;;;;5.10;45.20;;;3.41;49.18;102007.25;12249425;19;19938;-86
2023/04/05 04:07:05;;;;;;;;;;;5.10;45.20;;;3.40;49.23;102008.09;12248670;19;19922;-87
2023/04/05 04:11:07;;;;;;;;;;;5.10;45.20;;;3.33;49.36;101985.78;12245276;19;20454;-86
2023/04/05 04:15:12;;;;;;;;;;;5.10;45.20;;;3.40;49.33;102002.09;12249321;19;19923;-87
2023/04/05 04:19:32;;;;;;;;;;;5.10;45.20;;;3.34;49.47;101987.47;12246146;19;19911;-87
2023/04/05 04:23:46;;;;;;;;;;;5.10;45.30;;;3.45;49.36;102016.69;12246710;19;19923;-87
2023/04/05 04:28:17;;;;;;;;;;;5.10;45.30;;;3.45;49.33;102008.94;12244536;19;19926;-87
2023/04/05 04:32:50;;;;;;;;;;;5.10;45.30;;;3.39;49.35;101996.06;12245169;19;19930;-87
2023/04/05 04:37:21;;;;;;;;;;;5.10;45.30;;;3.22;49.40;101961.75;12244943;19;20357;-87
2023/04/05 04:41:46;;;;;;;;;;;5.10;45.30;;;3.38;49.47;102004.69;12247976;19;19925;-87
2023/04/05 04:46:05;;;;;;;;;;;5.10;45.30;;;3.42;49.21;102014.13;12259227;19;19914;-87
2023/04/05 04:50:15;;;;;;;;;;;5.20;45.40;;;3.50;49.46;102008.91;12255665;19;19937;-86
2023/04/05 04:54:19;;;;;;;;;;;5.40;45.50;;;3.56;49.33;102019.22;12259228;19;19914;-87
2023/04/05 04:58:21;;;;;;;;;;;5.20;45.40;;;3.58;49.42;102019.22;12249371;19;19994;-86
2023/04/05 05:02:32;;;;;;;;;;;5.20;45.40;;;3.39;49.39;101992.63;12256509;19;19914;-87
2023/04/05 05:06:33;;;;;;;;;;;5.20;45.40;;;3.58;49.42;102019.22;12256341;19;19955;-87
2023/04/05 05:10:35;;;;;;;;;;;5.30;45.40;;;3.60;49.47;102020.94;12254031;19;19914;-86
2023/04/05 05:14:39;;;;;;;;;;;5.30;45.40;;;3.59;49.55;102014.03;12255962;19;20329;-87
2023/04/05 05:18:41;;;;;;;;;;;5.30;45.50;;;3.64;49.41;102019.19;12255004;19;19930;-86
2023/04/05 05:22:45;;;;;;;;;;;5.40;45.50;;;3.51;49.46;101996.03;12257837;19;19943;-87
2023/04/05 05:26:47;;;;;;;;;;;5.30;45.50;;;3.68;49.48;102019.16;12254389;19;19923;-87
2023/04/05 05:30:48;;;;;;;;;;;5.50;45.60;;;3.41;49.60;101965.94;12254833;19;19915;-87
2023/04/05 05:34:49;;;;;;;;;;;5.40;45.50;;;3.68;49.63;101998.50;12260135;19;19990;-87
2023/04/05 05:38:51;;;;;;;;;;;5.40;45.50;;;3.72;49.64;101994.16;12254060;19;19928;-87
2023/04/05 05:42:53;;;;;;;;;;;5.40;45.50;;;3.64;49.67;101975.28;12259581;19;19914;-88
2023/04/05 05:46:54;;;;;;;;;;;5.40;45.60;;;3.77;49.60;102003.59;12256349;19;19922;-87
2023/04/05 05:50:56;;;;;;;;;;;5.50;45.60;;;3.48;49.77;101943.50;12251924;19;19938;-87
2023/04/05 05:54:57;;;;;;;;;;;5.50;45.60;;;3.85;49.68;101985.47;12255053;19;20341;-87
2023/04/05 05:59:00;;;;;;;;;;;5.60;45.70;;;3.90;49.62;101993.19;12253734;19;19907;-87
2023/04/05 06:03:03;;;;;;;;;;;5.60;45.70;;;3.94;49.68;101981.94;12256722;19;19923;-87
2023/04/05 06:07:04;;;;;;;;;;;5.80;45.80;;;3.91;49.81;101979.38;12257400;19;19942;-87
2023/04/05 06:11:06;;;;;;;;;;;5.70;45.70;;;3.85;49.71;101963.94;12253192;19;19975;-87
2023/04/05 06:15:07;;;;;;;;;;;5.70;45.80;;;3.98;49.80;101996.56;12251539;19;20338;-87
2023/04/05 06:19:09;;;;;;;;;;;5.80;46.20;;;3.84;49.91;101957.06;12250008;19;19950;-87
2023/04/05 06:23:11;;;;;;;;;;;5.90;46.20;;;4.13;49.79;101990.41;12255747;19;19911;-87
2023/04/05 06:27:13;;;;;;;;;;;5.90;46.20;;;4.08;49.92;101963.75;12252507;19;19932;-86
2023/04/05 06:31:16;;;;;;;;;;;6.00;46.10;;;4.29;49.89;101986.81;12246376;19;20248;-86
2023/04/05 06:35:17;;;;;;;;;;;6.10;46.00;;;4.04;49.74;101924.16;12247370;19;19919;-85
2023/04/05 06:39:18;;;;;;;;;;;6.20;46.00;;;4.45;49.95;101984.97;12246433;19;19957;-85
2023/04/05 06:43:20;;;;;;;;;;;6.20;46.10;;;4.63;49.79;102012.41;12246035;19;20322;-86
2023/04/05 06:47:21;;;;;;;;;;;6.50;46.00;;;4.65;49.79;101997.72;12248186;19;19911;-86
2023/04/05 06:51:24;;;;;;;;;;;6.40;46.00;;;4.63;50.02;101986.53;12248369;19;20429;-86
2023/04/05 06:55:26;;;;;;;;;;;6.50;46.00;;;4.86;49.89;102009.56;12247441;19;20467;-86
2023/04/05 06:59:28;;;;;;;;;;;6.60;45.90;;;4.60;50.13;101945.16;12246586;19;19910;-86
2023/04/05 07:03:31;;;;;;;;;;;6.70;46.30;;;4.93;49.94;101984.47;12247807;19;19919;-85
2023/04/05 07:07:32;;;;;;;;;;;6.70;45.90;;;5.08;50.05;101984.31;12244236;19;20233;-87
2023/04/05 07:11:34;;;;;;;;;;;6.80;45.90;;;5.13;49.88;101976.47;12247499;19;20027;-85
2023/04/05 07:15:35;;;;;;;;;;;6.90;45.90;;;5.18;49.96;101975.53;12248484;19;19919;-86
2023/04/05 07:19:36;;;;;;;;;;;7.00;46.00;;;5.11;50.00;101958.38;12233747;19;20237;-87
2023/04/05 07:23:38;;;;;;;;;;;7.00;46.00;;;5.04;50.11;101936.88;12247018;19;19926;-86
2023/04/05 07:27:39;;;;;;;;;;;7.10;46.00;;;5.46;50.01;102006.28;12244404;19;19922;-84
2023/04/05 07:31:41;;;;;;;;;;;7.20;46.00;;;5.40;50.08;101985.59;12243849;19;19915;-86
2023/04/05 07:35:43;;;;;;;;;;;7.30;46.00;;;5.30;50.14;101951.22;12242792;19;19926;-87
2023/04/05 07:39:45;;;;;;;;;;;7.30;46.00;;;5.69;50.13;101999.00;12243673;19;19939;-87
2023/04/05 07:43:46;;;;;;;;;;;7.50;46.10;;;5.65;49.90;101981.81;12245070;19;19922;-87
2023/04/05 07:47:48;;;;;;;;;;;7.80;46.10;;;5.84;50.13;101997.09;12242182;19;19953;-87
2023/04/05 07:51:52;;;;;;;;;;;7.60;46.00;;;5.94;50.05;102006.47;12242824;19;19919;-86
2023/04/05 07:55:56;;;;;;;;;;;7.70;46.10;;;5.75;50.21;101959.19;12242903;19;19926;-86
2023/04/05 07:59:58;;;;;;;;;;;7.80;46.50;;;5.96;49.96;101979.63;12242468;19;19919;-88
2023/04/05 08:03:59;;;;;;;;;;;7.80;46.00;;;6.20;49.92;101998.28;12245127;19;19922;-87
2023/04/05 08:08:01;;;;;;;;;;;7.90;45.90;;;6.20;50.04;101999.13;12243683;19;19903;-85
2023/04/05 08:12:02;;;;;;;;;;;7.90;45.80;;;6.09;50.16;101974.25;12245544;19;19911;-87
2023/04/05 08:16:04;;;;;;;;;;;8.00;45.40;;;6.26;50.15;101994.72;12246094;19;19919;-88
2023/04/05 08:20:07;;;;;;;;;;;8.00;45.50;;;6.36;49.96;102002.31;12254167;19;20284;-88
2023/04/05 08:24:08;;;;;;;;;;;8.10;45.70;;;6.38;50.10;101994.53;12258381;19;19918;-86
2023/04/05 08:28:10;;;;;;;;;;;8.10;45.50;;;6.43;50.24;101982.34;12254886;19;19911;-89
2023/04/05 08:32:11;;;;;;;;;;;8.20;45.10;;;6.67;49.94;101998.31;12253475;19;19915;-89
2023/04/05 08:36:12;;;;;;;;;;;8.40;44.80;;;6.82;50.16;102001.50;12255112;19;19992;-88
2023/04/05 08:40:14;;;;;;;;;;;8.70;44.10;;;6.84;49.97;101978.97;12256812;19;19991;-88
2023/04/05 08:44:17;;;;;;;;;;;8.60;45.00;;;6.94;50.04;101968.38;12254026;19;19929;-89
2023/04/05 08:48:19;;;;;;;;;;;8.70;45.20;;;7.11;49.86;101968.91;12252728;19;20276;-87
2023/04/05 08:52:21;;;;;;;;;;;8.90;45.50;;;7.23;49.89;101966.03;12250819;19;19923;-87
2023/04/05 08:56:33;;;;;;;;;;;9.00;45.40;;;7.46;50.03;101986.34;12254744;19;19915;-87
2023/04/05 09:00:35;;;;;;;;;;;9.20;44.80;;;7.66;50.18;101987.63;12252886;19;20275;-88
2023/04/05 09:04:43;;;;;;;;;;;9.40;45.30;;;7.88;49.95;101988.84;12255176;19;19915;-88
2023/04/05 09:08:45;;;;;;;;;;;9.50;45.20;;;7.91;50.16;101975.78;12249114;19;20361;-87
2023/04/05 09:12:47;;;;;;;;;;;9.70;45.00;;;8.03;49.78;101978.97;12255263;19;20092;-87
2023/04/05 09:16:49;;;;;;;;;;;9.80;45.00;;;8.09;49.76;101989.22;12252765;19;20460;-88
2023/04/05 09:20:54;;;;;;;;;;;9.90;44.70;;;8.10;50.01;101970.13;12253775;19;19926;-88
2023/04/05 09:24:56;;;;;;;;;;;9.90;44.50;;;8.18;49.93;101978.59;12253087;19;19914;-87
2023/04/05 09:28:59;;;;;;;;;;;10.00;44.10;;;8.25;49.43;101981.91;12249445;19;19922;-86
2023/04/05 09:33:01;;;;;;;;;;;10.10;45.00;;;7.98;49.77;101934.88;12249665;19;19914;-87
2023/04/05 09:37:15;;;;;;;;;;;10.10;44.10;;;8.13;49.76;101949.25;12250271;19;20475;-87
2023/04/05 09:41:16;;;;;;;;;;;10.10;43.70;;;8.38;49.74;101973.75;12252461;19;19925;-87
2023/04/05 09:45:18;;;;;;;;;;;10.20;43.00;;;8.56;49.77;101984.59;12247084;19;19911;-88
2023/04/05 09:49:33;;;;;;;;;;;10.30;43.40;;;8.54;49.62;101955.16;12245580;19;20257;-88
2023/04/05 09:53:34;;;;;;;;;;;10.40;43.60;;;8.69;49.49;101969.50;12251798;19;19934;-88
2023/04/05 09:57:37;;;;;;;;;;;10.50;43.80;;;8.76;49.65;101965.84;12249433;19;19927;-88
2023/04/05 10:01:43;;;;;;;;;;;10.50;43.80;;;8.83;49.62;101976.06;12250360;19;19971;-88
2023/04/05 10:05:44;;;;;;;;;;;10.60;43.10;;;8.80;49.66;101952.69;12247843;19;19923;-87
2023/04/05 10:09:47;;;;;;;;;;;10.60;43.70;;;8.92;49.58;101966.28;12244654;19;19915;-87
2023/04/05 10:13:49;;;;;;;;;;;10.90;43.80;;;9.09;49.57;101990.94;12248940;19;19940;-88
2023/04/05 10:17:54;;;;;;;;;;;10.70;44.00;;;9.11;49.42;101977.88;12250111;19;19932;-88
2023/04/05 10:21:58;;;;;;;;;;;10.80;44.60;;;9.06;49.60;101958.91;12249415;19;19931;-87
2023/04/05 10:26:07;;;;;;;;;;;10.90;44.60;;;9.08;49.36;101967.53;12249943;19;19918;-88
2023/04/05 10:30:09;;;;;;;;;;;10.90;43.90;;;9.19;49.24;101975.03;12245534;19;20343;-88
2023/04/05 10:34:31;;;;;;;;;;;10.90;44.30;;;9.22;49.35;101980.16;12248245;19;19919;-88
2023/04/05 10:39:03;;;;;;;;;;;10.90;44.20;;;9.11;49.19;101957.03;12246169;19;20320;-88
2023/04/05 10:43:06;;;;;;;;;;;10.90;44.20;;;9.19;49.37;101962.00;12246234;19;20272;-88
2023/04/05 10:47:10;;;;;;;;;;;10.90;43.40;;;9.22;49.38;101960.16;12246410;19;19915;-88
2023/04/05 10:51:12;;;;;;;;;;;10.90;44.70;;;9.26;49.39;101967.00;12242632;19;19915;-85
2023/04/05 10:55:15;;;;;;;;;;;11.00;43.70;;;9.26;49.27;101953.97;12246306;19;19923;-86
2023/04/05 10:59:17;;;;;;;;;;;11.00;43.30;;;9.14;49.30;101909.16;12244966;19;19932;-86
2023/04/05 11:03:40;;;;;;;;;;;11.00;43.80;;;9.30;49.29;101913.00;12242314;19;19923;-86
2023/04/05 11:07:43;;;;;;;;;;;11.10;43.70;;;9.60;49.24;101944.25;12246465;19;19927;-85
2023/04/05 11:11:47;;;;;;;;;;;11.20;43.80;;;9.43;49.02;101911.75;12247503;19;19919;-85
2023/04/05 11:16:07;;;;;;;;;;;11.30;44.30;;;9.56;48.98;101932.19;12247055;19;19954;-87
2023/04/05 11:20:10;;;;;;;;;;;11.30;43.20;;;9.61;49.08;101941.56;12240568;19;19930;-87
2023/04/05 11:24:16;;;;;;;;;;;11.30;43.90;;;9.67;49.22;101951.84;12241028;19;19946;-88
2023/04/05 11:28:40;;;;;;;;;;;11.30;43.70;;;9.75;49.14;101947.22;12242864;19;19958;-86
2023/04/05 11:32:43;;;;;;;;;;;11.30;43.70;;;9.81;49.02;101942.72;12241486;19;19918;-86
2023/04/05 11:36:49;;;;;;;;;;;11.30;43.00;;;9.73;48.96;101928.16;12241963;19;19948;-87
2023/04/05 11:41:03;;;;;;;;;;;11.40;43.50;;;9.79;48.98;101924.50;12243396;19;19914;-87
2023/04/05 11:45:07;;;;;;;;;;;11.50;44.10;;;9.91;49.08;101923.22;12241851;19;20400;-87
2023/04/05 11:49:08;;;;;;;;;;;11.50;43.90;;;9.90;49.13;101929.34;12240694;19;19982;-87
2023/04/05 11:53:14;;;;;;;;;;;11.60;43.20;;;10.02;49.04;101944.63;12249043;19;19986;-87
2023/04/05 11:57:21;;;;;;;;;;;11.50;43.50;;;9.99;48.92;101939.50;12254151;19;20627;-87
2023/04/05 12:01:23;;;;;;;;;;;11.60;43.40;;;9.87;48.71;101925.09;12257415;19;19931;-88
2023/04/05 12:05:24;;;;;;;;;;;11.50;42.50;;;9.78;48.90;101914.97;12249316;19;19942;-87
2023/04/05 12:09:26;;;;;;;;;;;11.50;43.00;;;9.82;48.90;101928.75;12250715;19;19923;-87
2023/04/05 12:13:30;;;;;;;;;;;11.50;42.30;;;9.83;48.86;101928.72;12251831;19;19938;-86
2023/04/05 12:17:45;;;;;;;;;;;11.40;43.50;;;9.88;48.76;101912.91;12252846;19;19938;-87
2023/04/05 12:21:47;;;;;;;;;;;11.40;42.80;;;9.58;48.92;101867.81;12254050;19;19966;-87
2023/04/05 12:25:49;;;;;;;;;;;11.40;42.00;;;9.89;48.63;101898.97;12249940;19;19923;-86
2023/04/05 12:30:23;;;;;;;;;;;11.50;42.70;;;10.03;48.82;101914.16;12247520;19;19925;-86
2023/04/05 12:34:25;;;;;;;;;;;11.50;43.10;;;10.12;48.83;101914.69;12250643;19;19934;-87
2023/04/05 12:38:26;;;;;;;;;;;11.60;42.70;;;10.06;48.77;101880.97;12250226;19;19978;-87
2023/04/05 12:42:32;;;;;;;;;;;11.60;43.10;;;10.19;48.71;101887.47;12253345;19;19919;-87
2023/04/05 12:46:39;;;;;;;;;;;11.70;41.50;;;9.81;48.64;101822.72;12249350;19;19927;-88
2023/04/05 12:50:45;;;;;;;;;;;11.80;41.40;;;10.28;48.70;101890.69;12248064;19;19982;-87
2023/04/05 12:54:54;;;;;;;;;;;11.80;42.70;;;10.23;48.57;101889.97;12249711;19;19930;-87
2023/04/05 12:58:55;;;;;;;;;;;11.80;42.80;;;10.29;48.49;101898.50;12246953;19;19935;-88
2023/04/05 13:02:58;;;;;;;;;;;11.80;42.00;;;10.18;48.58;101879.72;12246781;19;20357;-87
2023/04/05 13:06:59;;;;;;;;;;;11.80;43.00;;;10.24;48.67;101894.31;12249611;19;19928;-87
2023/04/05 13:11:01;;;;;;;;;;;11.80;41.90;;;10.16;48.55;101878.91;12249088;19;19974;-88
2023/04/05 13:15:03;;;;;;;;;;;11.80;42.80;;;10.15;48.52;101879.78;12250456;19;19927;-88
2023/04/05 13:19:04;;;;;;;;;;;11.70;43.20;;;10.20;48.69;101877.88;12248394;19;20385;-87
2023/04/05 13:23:09;;;;;;;;;;;11.70;43.00;;;10.31;48.63;101881.00;12249376;19;20261;-88
2023/04/05 13:27:11;;;;;;;;;;;11.80;42.30;;;10.32;48.56;101874.03;12249641;19;19925;-87
2023/04/05 13:31:13;;;;;;;;;;;11.80;42.40;;;10.25;48.67;101859.44;12244415;19;19928;-87
2023/04/05 13:35:14;;;;;;;;;;;11.80;42.30;;;10.28;48.55;101851.53;12249482;19;19918;-87
2023/04/05 13:39:16;;;;;;;;;;;11.90;43.20;;;10.46;48.49;101869.16;12247981;19;19927;-87
2023/04/05 13:43:17;;;;;;;;;;;11.90;43.30;;;10.48;48.40;101851.69;12249124;19;19921;-88
2023/04/05 13:47:19;;;;;;;;;;;12.00;43.10;;;10.49;48.46;101863.81;12247368;19;20234;-87
2023/04/05 13:51:21;;;;;;;;;;;12.00;43.20;;;10.50;48.45;101854.22;12246592;19;19987;-87
2023/04/05 13:55:23;;;;;;;;;;;12.00;42.70;;;10.43;48.21;101837.94;12240513;19;20427;-86
2023/04/05 13:59:24;;;;;;;;;;;12.00;42.30;;;10.31;48.29;101807.03;12242722;19;19918;-89
2023/04/05 14:03:26;;;;;;;;;;;12.00;43.10;;;10.54;48.44;101835.78;12246326;19;19934;-86
2023/04/05 14:07:28;;;;;;;;;;;12.10;43.30;;;10.58;48.36;101829.50;12242707;19;20408;-87
2023/04/05 14:11:31;;;;;;;;;;;12.10;42.70;;;10.58;48.28;101832.13;12245551;19;20470;-86
2023/04/05 14:15:33;;;;;;;;;;;12.10;42.50;;;10.59;48.27;101823.41;12247236;19;19986;-87
2023/04/05 14:19:35;;;;;;;;;;;12.10;42.60;;;10.59;48.16;101801.66;12247440;19;19982;-87
2023/04/05 14:23:37;;;;;;;;;;;12.20;42.90;;;10.62;48.18;101793.69;12247600;19;19915;-87
2023/04/05 14:27:41;;;;;;;;;;;12.20;43.00;;;10.72;48.15;101802.03;12241570;19;19960;-88
2023/04/05 14:31:43;;;;;;;;;;;12.20;42.30;;;10.80;48.30;101815.63;12241905;19;20265;-87
2023/04/05 14:35:45;;;;;;;;;;;12.30;43.10;;;10.66;48.30;101774.38;12240438;19;20264;-87
2023/04/05 14:39:46;;;;;;;;;;;12.30;42.80;;;10.91;48.23;101810.88;12240143;19;19926;-88
2023/04/05 14:43:52;;;;;;;;;;;12.40;41.90;;;10.83;48.12;101789.41;12235944;19;20463;-88
2023/04/05 14:47:54;;;;;;;;;;;12.40;42.90;;;10.85;48.25;101795.41;12240348;19;19923;-88
2023/04/05 14:51:56;;;;;;;;;;;12.40;42.30;;;10.91;48.11;101797.81;12240619;19;19926;-88
2023/04/05 14:55:58;;;;;;;;;;;12.40;41.90;;;10.61;48.02;101753.69;12241938;19;19939;-88
2023/04/05 14:59:59;;;;;;;;;;;12.40;41.60;;;10.89;48.19;101794.41;12239971;19;19922;-87
2023/04/05 15:04:01;;;;;;;;;;;12.40;42.30;;;10.93;48.00;101795.13;12240199;19;19923;-87
2023/04/05 15:08:03;;;;;;;;;;;12.50;42.50;;;10.87;48.10;101764.00;12239362;19;20029;-87
2023/04/05 15:12:05;;;;;;;;;;;12.40;40.20;;;10.92;47.72;101788.19;12240825;19;19982;-88
2023/04/05 15:16:07;;;;;;;;;;;12.40;42.80;;;10.78;47.78;101786.97;12244483;19;19918;-88
2023/04/05 15:20:09;;;;;;;;;;;12.40;40.80;;;10.71;47.89;101779.44;12241400;19;19935;-87
2023/04/05 15:24:10;;;;;;;;;;;12.40;41.60;;;10.72;47.79;101775.91;12244536;19;19918;-87
2023/04/05 15:28:12;;;;;;;;;;;12.30;42.30;;;10.60;47.64;101759.78;12240739;19;20323;-87
2023/04/05 15:32:14;;;;;;;;;;;12.30;42.90;;;10.77;47.58;101776.56;12245388;19;19918;-87
2023/04/05 15:36:16;;;;;;;;;;;12.30;42.70;;;10.82;47.69;101780.69;12246584;19;19930;-87
2023/04/05 15:40:17;;;;;;;;;;;12.30;42.90;;;10.75;47.76;101760.13;12248271;19;20313;-88
2023/04/05 15:44:19;;;;;;;;;;;12.30;42.80;;;10.76;47.75;101756.59;12245619;19;20329;-87
2023/04/05 15:48:20;;;;;;;;;;;12.40;43.20;;;10.89;47.75;101773.50;12243483;19;19935;-87
2023/04/05 15:52:22;;;;;;;;;;;12.40;43.10;;;10.92;47.72;101770.75;12241965;19;19926;-87
2023/04/05 15:56:23;;;;;;;;;;;12.40;43.20;;;10.89;47.60;101773.50;12244605;19;19926;-88
2023/04/05 16:00:27;;;;;;;;;;;12.40;43.00;;;10.85;47.50;101766.66;12243969;19;20309;-88
2023/04/05 16:04:29;;;;;;;;;;;12.30;43.00;;;10.81;47.55;101773.78;12245367;19;19994;-87
2023/04/05 16:08:31;;;;;;;;;;;12.30;42.90;;;10.84;47.67;101778.88;12244843;19;19915;-89
2023/04/05 16:12:33;;;;;;;;;;;12.30;43.00;;;10.65;47.68;101748.31;12242610;19;19927;-87
2023/04/05 16:16:35;;;;;;;;;;;12.30;43.10;;;10.84;47.52;101783.28;12236499;19;19911;-87
2023/04/05 16:20:37;;;;;;;;;;;12.30;43.00;;;10.77;47.59;101779.19;12242442;19;19954;-87
2023/04/05 16:24:38;;;;;;;;;;;12.20;43.10;;;10.77;47.57;101771.34;12242639;19;19926;-87
2023/04/05 16:28:40;;;;;;;;;;;12.20;43.20;;;10.76;47.45;101773.13;12238114;19;20341;-88
2023/04/05 16:32:41;;;;;;;;;;;12.20;43.40;;;10.52;47.51;101738.34;12240461;19;20011;-88
2023/04/05 16:36:43;;;;;;;;;;;12.20;43.40;;;10.58;47.38;101761.59;12239297;19;20003;-88
2023/04/05 16:40:45;;;;;;;;;;;12.20;43.40;;;10.43;47.34;101743.94;12250920;19;19942;-88
2023/04/05 16:44:46;;;;;;;;;;;12.20;43.50;;;10.56;47.39;101766.06;12253218;19;20599;-87
2023/04/05 16:48:48;;;;;;;;;;;12.10;43.40;;;10.59;47.40;101779.00;12251481;19;20322;-87
2023/04/05 16:52:49;;;;;;;;;;;12.10;43.50;;;10.25;47.52;101728.94;12250535;19;19989;-87
2023/04/05 16:56:50;;;;;;;;;;;12.00;43.60;;;10.55;47.58;101785.22;12251471;19;19927;-88
2023/04/05 17:00:57;;;;;;;;;;;12.00;43.50;;;10.55;47.54;101777.41;12253610;19;19918;-88
2023/04/05 17:04:58;;;;;;;;;;;11.90;43.60;;;10.51;47.45;101778.44;12253268;19;19919;-88
2023/04/05 17:09:00;;;;;;;;;;;12.00;43.70;;;10.48;47.48;101773.34;12247773;19;20244;-88
2023/04/05 17:13:01;;;;;;;;;;;11.90;43.70;;;10.37;47.38;101767.69;12251377;19;19930;-88
2023/04/05 17:17:04;;;;;;;;;;;11.90;43.70;;;10.47;47.49;101774.22;12250141;19;19922;-88
2023/04/05 17:21:05;;;;;;;;;;;11.90;43.80;;;10.39;47.34;101763.22;12251736;19;19926;-88
2023/04/05 17:25:07;;;;;;;;;;;11.90;43.80;;;10.38;47.54;101766.75;12256405;19;19978;-87
2023/04/05 17:29:09;;;;;;;;;;;11.90;43.90;;;10.26;47.44;101748.88;12248782;19;19944;-87
2023/04/05 17:33:10;;;;;;;;;;;11.90;43.90;;;10.35;47.55;101769.47;12251309;19;19943;-88
2023/04/05 17:37:12;;;;;;;;;;;11.80;43.90;;;10.28;47.53;101771.44;12249128;19;19919;-87
2023/04/05 17:41:13;;;;;;;;;;;11.80;43.70;;;10.24;47.46;101779.44;12253454;19;19975;-87
2023/04/05 17:45:15;;;;;;;;;;;11.80;43.80;;;10.25;47.28;101794.19;12254288;19;19932;-88
2023/04/05 17:49:16;;;;;;;;;;;11.70;43.70;;;10.08;47.52;101785.22;12250751;19;19915;-88
2023/04/05 17:53:18;;;;;;;;;;;11.60;43.70;;;10.07;47.26;101786.13;12252677;19;19926;-87
2023/04/05 17:57:19;;;;;;;;;;;11.50;43.70;;;10.01;47.47;101803.75;12252300;19;20360;-88
2023/04/05 18:01:20;;;;;;;;;;;11.40;43.80;;;9.94;47.35;101801.38;12253382;19;19918;-87
2023/04/05 18:05:22;;;;;;;;;;;11.30;43.70;;;9.83;47.38;101795.69;12250205;19;19915;-88
2023/04/05 18:09:25;;;;;;;;;;;11.30;43.80;;;9.80;47.44;101800.13;12246333;19;19926;-88
2023/04/05 18:13:27;;;;;;;;;;;11.20;43.80;;;9.72;47.31;101803.88;12248631;19;19970;-89
2023/04/05 18:17:29;;;;;;;;;;;11.10;43.80;;;9.29;47.46;101747.97;12247476;19;19950;-88
2023/04/05 18:21:31;;;;;;;;;;;11.00;44.20;;;9.51;47.37;101799.38;12250912;19;20420;-87
2023/04/05 18:25:32;;;;;;;;;;;10.90;43.80;;;9.16;47.33;101757.09;12253238;19;19927;-88
2023/04/05 18:29:36;;;;;;;;;;;10.80;43.80;;;9.43;47.44;101810.06;12249147;19;20584;-87
2023/04/05 18:33:39;;;;;;;;;;;10.70;43.90;;;9.16;47.31;101769.25;12251378;19;19930;-87